Time;durP1;ratioP1;P1;durP2;ratioP2;P2;SDS_P1;SDS_P2;PMS_P1;PMS_P2;Temp;Humidity;BMP_temperature;BMP_pressure;BME280_temperature;BME280_humidity;BME280_pressure;Samples;Min_cycle;Max_cycle;Signal;HPM_P1;HPM_P2
2023/04/15 00:03:34;;;;;;;12.60;8.60;;;;;;;9.84;79.94;97466.98;225792;1278;22524;-74
2023/04/15 00:08:36;;;;;;;14.10;9.20;;;;;;;9.67;79.81;97471.13;225761;1254;22553;-74
2023/04/15 00:13:39;;;;;;;13.20;9.30;;;;;;;9.49;79.67;97471.86;225929;1278;22528;-75
2023/04/15 00:18:41;;;;;;;15.10;9.50;;;;;;;9.33;80.27;97477.29;225712;1278;22522;-74
2023/04/15 00:23:43;;;;;;;12.20;10.10;;;;;;;9.16;80.42;97478.35;226089;1278;22570;-74
2023/04/15 00:28:45;;;;;;;15.10;10.20;;;;;;;9.00;80.08;97484.79;225875;1278;24290;-75
2023/04/15 00:33:48;;;;;;;15.30;10.60;;;;;;;8.85;80.72;97492.10;225777;1278;22527;-74
2023/04/15 00:38:50;;;;;;;18.30;12.40;;;;;;;8.71;80.60;97496.53;225797;1278;22521;-74
2023/04/15 00:43:55;;;;;;;17.00;12.10;;;;;;;8.57;80.75;97498.85;226049;1271;22650;-74
2023/04/15 00:48:57;;;;;;;18.50;12.60;;;;;;;8.43;80.53;97508.31;225841;1278;22520;-74
2023/04/15 00:54:04;;;;;;;17.60;12.40;;;;;;;8.33;80.98;97513.13;225952;1276;22540;-73
2023/04/15 00:59:08;;;;;;;17.20;12.00;;;;;;;8.21;80.68;97517.09;225864;1278;22533;-74
2023/04/15 01:04:11;;;;;;;18.60;12.40;;;;;;;8.11;81.11;97518.60;225810;1275;22637;-74
2023/04/15 01:09:13;;;;;;;14.30;10.00;;;;;;;8.04;80.99;97529.04;225852;1277;22576;-74
2023/04/15 01:14:16;;;;;;;12.50;9.60;;;;;;;7.99;81.34;97529.13;225877;1276;22692;-74
2023/04/15 01:19:18;;;;;;;10.30;7.00;;;;;;;7.97;80.81;97533.83;225790;1276;22546;-75
2023/04/15 01:24:22;;;;;;;8.20;6.00;;;;;;;7.97;80.82;97531.84;225846;1277;24238;-73
2023/04/15 01:29:25;;;;;;;7.60;5.80;;;;;;;7.97;80.79;97534.48;225761;1278;22530;-73
2023/04/15 01:34:27;;;;;;;6.40;4.60;;;;;;;7.97;80.69;97532.45;225885;1278;22525;-74
2023/04/15 01:39:29;;;;;;;6.00;4.10;;;;;;;7.96;80.98;97535.71;225741;1278;22518;-74
2023/04/15 01:44:31;;;;;;;6.30;4.70;;;;;;;7.95;80.47;97534.66;225966;1277;22538;-73
2023/04/15 01:49:34;;;;;;;3.80;3.20;;;;;;;7.92;80.58;97530.13;225980;1274;24156;-73
2023/04/15 01:54:36;;;;;;;3.40;2.80;;;;;;;7.89;80.22;97536.15;225747;1278;22543;-75
2023/04/15 01:59:38;;;;;;;4.50;3.20;;;;;;;7.88;80.68;97539.61;225851;1278;22556;-75
2023/04/15 02:04:40;;;;;;;5.80;3.90;;;;;;;7.85;80.09;97542.39;225797;1278;23311;-74
2023/04/15 02:09:42;;;;;;;4.10;3.00;;;;;;;7.79;80.30;97547.23;225914;1276;22529;-73
2023/04/15 02:14:44;;;;;;;4.80;3.00;;;;;;;7.78;79.91;97551.60;225914;1278;22743;-74
2023/04/15 02:19:47;;;;;;;4.60;3.00;;;;;;;7.77;79.77;97556.80;225764;1278;25233;-74
2023/04/15 02:24:49;;;;;;;4.50;3.70;;;;;;;7.73;79.75;97568.66;225969;1274;22538;-75
2023/04/15 02:29:52;;;;;;;6.40;4.30;;;;;;;7.69;79.71;97575.98;225837;1278;22649;-74
2023/04/15 02:34:54;;;;;;;5.00;4.40;;;;;;;7.64;79.97;97577.70;225744;1276;24405;-74
2023/04/15 02:39:56;;;;;;;6.70;5.20;;;;;;;7.59;79.82;97585.48;226037;1276;22513;-74
2023/04/15 02:44:58;;;;;;;9.80;7.20;;;;;;;7.54;79.93;97582.46;225955;1276;22544;-74
2023/04/15 02:50:06;;;;;;;12.20;7.30;;;;;;;7.49;80.02;97587.80;225828;1278;24412;-73
2023/04/15 02:55:09;;;;;;;12.30;8.70;;;;;;;7.41;80.28;97594.53;225982;1276;22528;-74
2023/04/15 03:00:13;;;;;;;13.90;9.40;;;;;;;7.32;79.99;97591.59;225622;1277;22533;-74
2023/04/15 03:05:16;;;;;;;13.50;9.70;;;;;;;7.21;80.58;97595.71;225875;1273;22528;-74
2023/04/15 03:10:23;;;;;;;16.40;10.90;;;;;;;7.11;80.65;97605.77;225820;1273;22550;-75
2023/04/15 03:15:25;;;;;;;16.70;10.80;;;;;;;7.02;80.85;97616.06;225810;1276;22538;-73
2023/04/15 03:20:28;;;;;;;15.10;9.70;;;;;;;6.93;80.85;97619.00;226030;1277;22524;-75
2023/04/15 03:25:31;;;;;;;14.00;9.60;;;;;;;6.82;81.08;97623.66;225893;1278;24312;-73
2023/04/15 03:30:34;;;;;;;14.30;9.50;;;;;;;6.70;81.37;97627.78;225750;1276;22540;-73
2023/04/15 03:35:37;;;;;;;14.50;10.30;;;;;;;6.60;81.25;97632.55;225752;1278;22547;-73
2023/04/15 03:40:40;;;;;;;14.60;10.40;;;;;;;6.55;81.47;97634.58;226044;1276;23800;-74
2023/04/15 03:45:42;;;;;;;14.70;9.70;;;;;;;6.51;81.90;97634.48;225724;1278;22536;-73
2023/04/15 03:50:45;;;;;;;12.10;8.50;;;;;;;6.45;81.72;97643.23;225899;1278;22521;-74
2023/04/15 03:55:47;;;;;;;12.60;8.30;;;;;;;6.34;81.53;97645.39;225772;1277;22633;-74
2023/04/15 04:00:49;;;;;;;10.70;7.90;;;;;;;6.22;81.73;97644.29;225767;1278;22580;-73
2023/04/15 04:05:51;;;;;;;12.90;9.30;;;;;;;6.11;81.83;97645.95;225940;1273;22539;-73
2023/04/15 04:10:53;;;;;;;12.40;9.20;;;;;;;6.03;82.16;97653.27;225706;1278;22526;-74
2023/04/15 04:15:56;;;;;;;12.10;8.80;;;;;;;5.96;82.18;97660.11;225809;1278;22528;-74
2023/04/15 04:20:58;;;;;;;16.90;10.50;;;;;;;5.90;82.63;97654.35;225943;1276;23011;-75
2023/04/15 04:26:01;;;;;;;13.60;9.90;;;;;;;5.87;82.86;97659.77;225806;1276;24270;-74
2023/04/15 04:31:04;;;;;;;13.40;9.90;;;;;;;5.85;82.92;97666.48;225971;1276;22532;-74
2023/04/15 04:36:06;;;;;;;15.80;10.50;;;;;;;5.86;83.16;97670.23;225679;1278;22557;-74
2023/04/15 04:41:08;;;;;;;15.30;10.80;;;;;;;5.89;82.78;97678.36;225750;1278;22559;-75
2023/04/15 04:46:11;;;;;;;18.30;11.60;;;;;;;5.97;83.35;97687.44;225848;1278;22535;-74
2023/04/15 04:51:15;;;;;;;15.00;11.20;;;;;;;6.06;83.19;97691.20;225803;1276;22717;-73
2023/04/15 04:56:17;;;;;;;17.50;11.90;;;;;;;6.19;83.44;97706.79;225572;1262;22558;-74
2023/04/15 05:01:20;;;;;;;18.00;12.60;;;;;;;6.32;83.41;97709.02;225766;1278;22650;-73
2023/04/15 05:06:26;;;;;;;17.10;12.80;;;;;;;6.46;83.44;97700.98;225710;1275;25342;-72
2023/04/15 05:11:29;;;;;;;18.40;13.70;;;;;;;6.62;83.50;97698.51;225789;1278;22547;-74
2023/04/15 05:16:32;;;;;;;20.30;13.30;;;;;;;6.79;83.50;97705.02;225772;1278;22940;-73
2023/04/15 05:21:34;;;;;;;23.40;15.00;;;;;;;6.95;83.18;97710.27;225754;1278;22955;-73
2023/04/15 05:26:38;;;;;;;18.00;13.30;;;;;;;7.08;82.89;97709.67;225845;1277;22514;-74
2023/04/15 05:31:40;;;;;;;15.90;12.70;;;;;;;7.24;82.50;97712.00;225833;1276;22559;-74
2023/04/15 05:36:43;;;;;;;16.40;12.50;;;;;;;7.44;82.43;97709.85;225749;1277;22518;-74
2023/04/15 05:41:45;;;;;;;14.50;11.10;;;;;;;7.62;82.40;97707.39;225839;1276;22543;-74
2023/04/15 05:46:47;;;;;;;13.00;10.40;;;;;;;7.77;82.24;97709.84;225696;1278;24286;-74
2023/04/15 05:51:50;;;;;;;13.30;10.00;;;;;;;7.87;82.07;97713.06;225889;1277;22876;-74
2023/04/15 05:56:52;;;;;;;12.20;9.40;;;;;;;8.00;82.07;97713.48;225752;1278;23167;-74
2023/04/15 06:01:55;;;;;;;9.60;7.20;;;;;;;8.18;82.06;97714.14;225885;1276;22538;-75
2023/04/15 06:06:57;;;;;;;10.40;8.20;;;;;;;8.33;81.42;97725.40;225914;1275;22979;-74
2023/04/15 06:12:00;;;;;;;10.80;8.80;;;;;;;8.49;81.22;97736.91;225758;1278;22531;-75
2023/04/15 06:17:03;;;;;;;9.20;7.80;;;;;;;8.71;81.26;97745.46;226025;1275;22528;-74
2023/04/15 06:22:06;;;;;;;9.20;6.70;;;;;;;8.88;80.47;97744.42;225721;1278;25422;-74
2023/04/15 06:27:08;;;;;;;25.70;20.20;;;;;;;9.02;80.04;97747.14;225795;1273;22516;-74
2023/04/15 06:32:11;;;;;;;8.60;6.40;;;;;;;9.21;79.11;97753.00;225768;1266;22528;-75
2023/04/15 06:37:15;;;;;;;5.90;5.30;;;;;;;9.50;79.33;97757.94;225708;1257;24406;-73
2023/04/15 06:42:17;;;;;;;6.00;5.40;;;;;;;9.88;79.17;97760.31;225383;1278;24294;-76
2023/04/15 06:47:20;;;;;;;6.60;5.90;;;;;;;10.24;78.53;97760.83;225324;1272;25271;-75
2023/04/15 06:52:22;;;;;;;7.60;6.80;;;;;;;10.51;77.98;97756.83;225560;1273;22555;-76
2023/04/15 06:57:24;;;;;;;7.40;5.50;;;;;;;10.65;76.99;97752.69;225619;1259;25418;-76
2023/04/15 07:02:26;;;;;;;7.70;6.40;;;;;;;10.71;76.71;97753.56;225723;1256;22517;-76
2023/04/15 07:07:29;;;;;;;4.50;3.70;;;;;;;10.83;76.28;97751.94;225373;1264;22537;-76
2023/04/15 07:12:31;;;;;;;5.00;4.10;;;;;;;11.04;75.75;97755.48;225327;1275;22729;-76
2023/04/15 07:17:33;;;;;;;4.50;3.60;;;;;;;11.21;75.21;97767.98;225454;1256;22587;-78
2023/04/15 07:22:35;;;;;;;4.80;3.90;;;;;;;11.32;74.72;97766.17;225232;1272;22541;-77
2023/04/15 07:27:37;;;;;;;4.30;3.80;;;;;;;11.40;74.36;97767.16;225302;1262;22649;-77
2023/04/15 07:32:41;;;;;;;8.30;5.40;;;;;;;11.53;74.42;97766.79;225415;1267;22543;-77
2023/04/15 07:37:43;;;;;;;6.10;5.50;;;;;;;11.74;74.15;97773.30;225222;1278;23263;-76
2023/04/15 07:42:48;;;;;;;10.40;8.00;;;;;;;11.90;73.67;97768.71;225409;1276;22523;-76
2023/04/15 07:47:50;;;;;;;6.90;6.00;;;;;;;11.99;73.23;97769.49;225363;1278;22747;-78
2023/04/15 07:52:52;;;;;;;6.90;6.10;;;;;;;12.05;72.63;97771.83;225436;1275;22691;-76
2023/04/15 07:57:54;;;;;;;6.90;5.60;;;;;;;12.07;72.28;97767.45;225518;1275;22527;-76
2023/04/15 08:02:58;;;;;;;5.90;5.20;;;;;;;12.14;72.18;97771.31;225505;1278;22772;-76
2023/04/15 08:08:00;;;;;;;6.80;5.50;;;;;;;12.20;71.69;97768.17;225444;1272;22562;-75
2023/04/15 08:13:02;;;;;;;7.20;4.90;;;;;;;12.26;71.48;97771.41;225457;1278;22527;-76
2023/04/15 08:18:05;;;;;;;6.20;4.90;;;;;;;12.30;71.21;97770.18;225336;1278;24031;-75
2023/04/15 08:23:07;;;;;;;6.40;4.60;;;;;;;12.32;70.88;97776.21;225487;1268;22549;-76
2023/04/15 08:28:09;;;;;;;6.60;4.50;;;;;;;12.47;71.11;97771.35;225634;1275;22520;-77
2023/04/15 08:33:11;;;;;;;5.70;4.70;;;;;;;12.75;71.39;97777.74;225262;1259;23747;-78
2023/04/15 08:38:14;;;;;;;7.30;4.30;;;;;;;13.04;70.45;97773.71;225449;1278;22539;-77
2023/04/15 08:43:27;;;;;;;5.70;4.80;;;;;;;13.18;70.03;97774.18;225485;1275;22539;-77
2023/04/15 08:48:33;;;;;;;4.50;4.00;;;;;;;13.27;69.39;97771.73;225612;1278;22539;-76
2023/04/15 08:53:36;;;;;;;4.80;4.00;;;;;;;13.29;68.33;97766.60;225410;1260;22548;-76
2023/04/15 08:58:39;;;;;;;4.30;3.50;;;;;;;13.22;68.56;97768.05;225403;1274;22548;-77
2023/04/15 09:03:41;;;;;;;5.20;4.20;;;;;;;13.16;68.13;97771.30;225426;1278;22526;-75
2023/04/15 09:08:43;;;;;;;4.60;3.80;;;;;;;13.21;68.28;97773.83;225593;1275;22518;-76
2023/04/15 09:13:45;;;;;;;4.40;3.80;;;;;;;13.40;68.51;97775.31;225545;1276;22527;-76
2023/04/15 09:18:47;;;;;;;5.20;3.80;;;;;;;13.72;68.26;97783.11;225525;1272;22671;-76
2023/04/15 09:23:58;;;;;;;4.70;3.50;;;;;;;14.10;67.91;97778.53;225563;1265;22530;-76
2023/04/15 09:29:12;;;;;;;4.70;3.60;;;;;;;14.43;67.51;97775.86;225437;1259;22576;-76
2023/04/15 09:34:14;;;;;;;1.70;1.50;;;;;;;14.84;65.71;97768.96;225441;1271;22552;-77
2023/04/15 09:39:16;;;;;;;2.30;2.10;;;;;;;15.14;64.99;97762.05;225192;1258;22589;-76
2023/04/15 09:44:23;;;;;;;6.70;3.60;;;;;;;15.45;64.49;97756.63;225519;1275;22564;-76
2023/04/15 09:49:26;;;;;;;3.20;1.50;;;;;;;15.67;63.07;97757.91;225341;1263;22543;-75
2023/04/15 09:54:37;;;;;;;2.70;2.00;;;;;;;15.81;63.50;97767.81;225526;1259;22575;-75
2023/04/15 09:59:39;;;;;;;2.20;1.80;;;;;;;16.04;62.85;97761.70;225227;1272;26240;-77
2023/04/15 10:04:43;;;;;;;1.80;1.60;;;;;;;16.29;62.42;97763.92;224998;1278;22900;-76
2023/04/15 10:09:45;;;;;;;1.30;1.20;;;;;;;16.56;60.99;97764.05;225163;1272;22564;-75
2023/04/15 10:14:55;;;;;;;1.30;1.20;;;;;;;16.58;59.15;97763.16;225734;1267;23191;-75
2023/04/15 10:20:00;;;;;;;1.30;1.20;;;;;;;16.61;59.24;97760.33;225796;1263;22492;-75
2023/04/15 10:25:03;;;;;;;1.90;1.70;;;;;;;16.79;59.85;97761.27;225508;1272;149578;-75
2023/04/15 10:30:07;;;;;;;2.00;1.80;;;;;;;16.91;59.81;97763.20;225685;1270;22516;-75
2023/04/15 10:35:10;;;;;;;2.10;1.70;;;;;;;16.86;59.47;97756.33;225674;1262;22537;-75
2023/04/15 10:40:32;;;;;;;2.80;1.90;;;;;;;16.89;59.03;97753.73;225482;1276;22612;-75
2023/04/15 10:45:36;;;;;;;2.00;1.90;;;;;;;16.93;58.75;97752.59;225672;1267;22531;-75
2023/04/15 10:50:38;;;;;;;6.90;6.20;;;;;;;16.99;58.12;97756.58;225692;1276;22551;-75
2023/04/15 10:55:40;;;;;;;3.40;2.50;;;;;;;17.05;58.56;97753.29;225726;1263;22671;-75
2023/04/15 11:00:51;;;;;;;2.50;2.00;;;;;;;17.01;57.91;97752.08;225688;1269;23268;-75
2023/04/15 11:05:54;;;;;;;7.30;2.60;;;;;;;16.82;57.45;97756.00;225706;1270;23201;-76
2023/04/15 11:10:56;;;;;;;2.20;2.00;;;;;;;16.73;57.61;97757.06;225619;1278;25430;-77
2023/04/15 11:16:00;;;;;;;2.20;1.80;;;;;;;16.54;57.22;97768.89;225767;1277;22520;-79
2023/04/15 11:21:05;;;;;;;2.90;2.00;;;;;;;16.23;57.49;97773.71;225745;1276;22547;-79
2023/04/15 11:26:10;;;;;;;2.50;2.00;;;;;;;15.80;57.75;97777.44;225938;1275;22510;-78
2023/04/15 11:31:16;;;;;;;1.90;1.80;;;;;;;15.54;58.61;97780.61;225631;1278;22537;-79
2023/04/15 11:36:19;;;;;;;3.60;2.00;;;;;;;15.25;57.98;97783.98;225733;1278;22527;-78
2023/04/15 11:41:22;;;;;;;2.30;2.10;;;;;;;15.00;58.21;97783.85;225768;1278;22648;-77
2023/04/15 11:46:30;;;;;;;2.40;2.20;;;;;;;14.87;58.63;97786.72;225739;1278;22538;-78
2023/04/15 11:51:34;;;;;;;2.20;2.00;;;;;;;14.85;59.21;97786.09;225544;1278;22531;-78
2023/04/15 11:56:35;;;;;;;8.00;7.10;;;;;;;14.70;58.50;97793.74;225718;1276;22663;-77
2023/04/15 12:01:38;;;;;;;2.70;2.50;;;;;;;14.61;59.00;97797.30;225773;1276;22538;-78
2023/04/15 12:06:41;;;;;;;3.00;2.30;;;;;;;14.64;59.45;97800.19;225794;1277;22531;-77
2023/04/15 12:11:50;;;;;;;2.40;2.20;;;;;;;14.66;58.81;97799.53;225749;1276;22557;-78
2023/04/15 12:16:58;;;;;;;2.60;2.40;;;;;;;14.71;58.16;97802.48;225900;1275;22524;-78
2023/04/15 12:22:08;;;;;;;2.40;2.20;;;;;;;14.94;57.99;97798.86;225742;1278;24995;-77
2023/04/15 12:27:12;;;;;;;2.70;2.50;;;;;;;15.24;58.01;97793.98;225601;1278;22470;-78
2023/04/15 12:32:16;;;;;;;2.50;2.30;;;;;;;15.65;58.13;97791.38;225898;1275;22536;-77
2023/04/15 12:37:18;;;;;;;2.50;2.30;;;;;;;15.96;57.10;97796.51;225583;1275;22700;-78
2023/04/15 12:42:21;;;;;;;2.90;2.30;;;;;;;16.17;56.33;97794.59;225539;1278;22588;-78
2023/04/15 12:47:24;;;;;;;3.00;2.20;;;;;;;16.45;56.74;97790.98;225506;1278;22531;-78
2023/04/15 12:52:26;;;;;;;3.70;2.60;;;;;;;16.62;56.13;97793.73;225710;1277;22652;-78
2023/04/15 12:57:28;;;;;;;2.60;2.40;;;;;;;16.76;55.80;97793.20;225868;1278;22544;-78
2023/04/15 13:02:30;;;;;;;3.30;2.40;;;;;;;16.94;55.62;97794.17;225570;1278;22520;-78
2023/04/15 13:07:33;;;;;;;2.50;2.10;;;;;;;16.94;55.62;97791.70;225724;1278;22521;-77
2023/04/15 13:12:36;;;;;;;2.80;2.10;;;;;;;17.04;55.93;97784.02;225672;1278;22534;-78
2023/04/15 13:17:38;;;;;;;2.60;2.40;;;;;;;17.04;54.82;97787.90;225539;1278;22532;-78
2023/04/15 13:22:41;;;;;;;3.00;2.60;;;;;;;16.87;54.67;97790.81;225543;1275;22549;-78
2023/04/15 13:27:43;;;;;;;3.50;2.50;;;;;;;16.93;55.58;97791.91;225805;1273;22646;-78
2023/04/15 13:32:45;;;;;;;2.70;2.40;;;;;;;17.02;55.24;97794.58;225676;1278;22526;-78
2023/04/15 13:37:53;;;;;;;3.00;2.40;;;;;;;16.92;54.74;97797.52;225706;1277;22539;-78
2023/04/15 13:42:56;;;;;;;3.40;2.80;;;;;;;16.74;54.59;97801.50;225702;1278;22531;-78
2023/04/15 13:47:58;;;;;;;2.90;2.60;;;;;;;16.53;54.41;97803.60;225719;1277;24273;-78
2023/04/15 13:53:00;;;;;;;2.40;2.20;;;;;;;16.26;54.70;97806.11;225462;1278;22528;-79
2023/04/15 13:58:02;;;;;;;2.70;2.50;;;;;;;15.90;55.57;97799.67;225386;1278;22523;-78
2023/04/15 14:03:05;;;;;;;2.90;2.70;;;;;;;15.50;55.98;97801.98;225635;1278;22527;-79
2023/04/15 14:08:08;;;;;;;6.20;2.60;;;;;;;15.14;56.91;97811.43;225776;1278;25236;-77
2023/04/15 14:13:10;;;;;;;3.30;3.00;;;;;;;14.84;57.36;97817.04;225798;1278;22531;-79
2023/04/15 14:18:12;;;;;;;3.00;2.70;;;;;;;14.61;58.08;97822.89;225781;1276;24092;-77
2023/04/15 14:23:15;;;;;;;3.40;3.10;;;;;;;14.44;58.72;97828.61;225528;1278;22525;-78
2023/04/15 14:28:17;;;;;;;3.40;3.00;;;;;;;14.28;58.99;97832.37;225546;1278;22535;-78
2023/04/15 14:33:19;;;;;;;3.10;2.80;;;;;;;14.13;59.71;97843.70;225614;1278;22541;-78
2023/04/15 14:38:21;;;;;;;3.80;3.20;;;;;;;14.05;60.21;97850.27;225686;1277;22531;-77
2023/04/15 14:43:24;;;;;;;3.40;3.10;;;;;;;14.02;60.45;97849.67;225612;1278;22523;-78
2023/04/15 14:48:27;;;;;;;4.60;3.50;;;;;;;13.99;60.68;97858.25;225783;1278;22528;-82
2023/04/15 14:53:31;;;;;;;3.10;2.80;;;;;;;14.02;61.00;97855.99;225949;1278;22562;-84
2023/04/15 14:58:34;;;;;;;4.20;3.80;;;;;;;14.02;61.24;97861.56;225742;1278;22544;-85
2023/04/15 15:03:39;;;;;;;3.40;2.90;;;;;;;14.00;61.35;97863.31;225693;1278;22474;-86
2023/04/15 15:08:41;;;;;;;4.40;3.30;;;;;;;13.94;60.53;97869.40;225975;1276;22533;-83
2023/04/15 15:13:44;;;;;;;3.80;3.20;;;;;;;13.84;60.25;97871.36;225663;1278;22531;-85
2023/04/15 15:18:46;;;;;;;3.50;3.20;;;;;;;13.77;60.32;97871.20;225707;1278;22967;-85
2023/04/15 15:23:48;;;;;;;4.20;3.50;;;;;;;13.70;60.46;97872.16;225552;1278;24273;-84
2023/04/15 15:28:50;;;;;;;4.30;3.90;;;;;;;13.64;60.83;97875.62;225837;1278;22551;-84
2023/04/15 15:33:52;;;;;;;5.20;3.90;;;;;;;13.56;61.05;97881.31;225627;1269;22573;-85
2023/04/15 15:38:58;;;;;;;4.90;4.30;;;;;;;13.49;61.58;97878.86;225577;1278;22535;-85
2023/04/15 15:44:15;;;;;;;5.90;4.80;;;;;;;13.43;62.01;97883.08;225833;1278;22591;-85
2023/04/15 15:49:18;;;;;;;5.60;5.00;;;;;;;13.36;62.53;97889.05;225713;1278;22544;-84
2023/04/15 15:54:25;;;;;;;6.20;4.90;;;;;;;13.28;63.25;97895.22;225663;1278;22540;-86
2023/04/15 15:59:27;;;;;;;8.70;6.90;;;;;;;13.15;64.17;97915.23;225499;1278;22544;-85
2023/04/15 16:04:29;;;;;;;6.80;5.20;;;;;;;12.89;65.04;97932.08;225934;1272;22546;-84
2023/04/15 16:09:31;;;;;;;4.80;4.20;;;;;;;12.63;65.13;97940.59;225917;1276;23715;-83
2023/04/15 16:14:33;;;;;;;4.10;3.70;;;;;;;12.34;65.38;97955.26;225779;1278;22527;-85
2023/04/15 16:19:35;;;;;;;4.10;3.50;;;;;;;11.97;66.42;97956.86;225601;1278;22530;-84
2023/04/15 16:24:38;;;;;;;6.40;3.90;;;;;;;11.53;67.95;97971.73;225941;1278;22539;-83
2023/04/15 16:29:40;;;;;;;5.40;4.70;;;;;;;10.93;69.31;97965.08;225586;1255;22527;-82
2023/04/15 16:34:42;;;;;;;6.60;4.90;;;;;;;10.41;70.53;97961.23;225724;1278;22527;-82
2023/04/15 16:39:44;;;;;;;6.10;4.60;;;;;;;10.05;71.89;97959.48;225629;1278;22534;-81
2023/04/15 16:44:47;;;;;;;5.00;4.50;;;;;;;9.76;72.83;97957.13;225730;1278;22543;-81
2023/04/15 16:49:49;;;;;;;4.80;4.40;;;;;;;9.58;73.25;97960.40;225481;1278;22586;-84
2023/04/15 16:54:51;;;;;;;4.20;3.60;;;;;;;9.45;73.59;97964.70;225715;1272;22862;-82
2023/04/15 16:59:53;;;;;;;5.20;4.20;;;;;;;9.34;74.29;97971.69;225663;1278;25537;-83
2023/04/15 17:04:56;;;;;;;8.50;6.40;;;;;;;9.26;74.65;97997.27;225792;1278;24097;-83
2023/04/15 17:09:58;;;;;;;7.40;5.50;;;;;;;9.24;75.33;98012.33;225905;1278;22816;-84
2023/04/15 17:15:00;;;;;;;4.80;4.20;;;;;;;9.23;75.71;98013.38;225812;1278;22535;-83
2023/04/15 17:20:03;;;;;;;7.60;6.00;;;;;;;9.17;75.79;98021.86;225766;1277;22527;-82
2023/04/15 17:25:06;;;;;;;8.10;5.90;;;;;;;9.11;76.09;98039.98;225447;1278;22527;-82
2023/04/15 17:30:08;;;;;;;7.70;5.90;;;;;;;9.02;76.50;98054.02;225647;1278;22534;-82
2023/04/15 17:35:11;;;;;;;6.50;5.30;;;;;;;8.94;77.15;98062.80;225629;1278;22939;-82
2023/04/15 17:40:13;;;;;;;7.50;5.50;;;;;;;8.89;77.26;98067.95;225759;1278;22498;-83
2023/04/15 17:45:16;;;;;;;6.10;5.40;;;;;;;8.89;77.55;98073.75;225762;1278;22563;-84
2023/04/15 17:50:18;;;;;;;8.40;5.40;;;;;;;8.90;77.60;98083.64;225665;1278;22521;-81
2023/04/15 17:55:21;;;;;;;5.80;4.70;;;;;;;8.89;78.14;98086.27;225819;1275;23041;-81
2023/04/15 18:00:23;;;;;;;5.00;4.40;;;;;;;8.86;78.01;98098.40;225653;1278;22528;-82
2023/04/15 18:05:25;;;;;;;7.40;6.00;;;;;;;8.85;77.93;98127.12;225694;1278;24110;-81
2023/04/15 18:10:27;;;;;;;12.20;9.30;;;;;;;8.86;78.70;98145.12;225596;1278;22546;-82
2023/04/15 18:15:30;;;;;;;12.60;7.90;;;;;;;8.86;78.56;98150.23;225840;1256;22531;-80
2023/04/15 18:20:32;;;;;;;13.50;9.30;;;;;;;8.85;78.90;98160.84;225590;1278;22539;-81
2023/04/15 18:25:37;;;;;;;10.10;7.40;;;;;;;8.84;78.92;98159.14;225544;1278;22551;-81
2023/04/15 18:30:39;;;;;;;12.20;7.70;;;;;;;8.81;79.19;98151.64;225715;1279;25485;-80
2023/04/15 18:35:41;;;;;;;10.30;7.80;;;;;;;8.80;79.36;98162.50;225545;1279;22541;-79
2023/04/15 18:40:43;;;;;;;9.10;7.80;;;;;;;8.81;79.80;98165.83;225404;1279;22530;-81
2023/04/15 18:45:46;;;;;;;10.70;8.10;;;;;;;8.80;79.31;98169.18;225808;1269;22531;-78
2023/04/15 18:50:48;;;;;;;10.40;7.10;;;;;;;8.78;79.80;98170.05;225794;1278;22544;-81
2023/04/15 18:55:50;;;;;;;11.40;7.30;;;;;;;8.74;79.80;98176.81;225538;1278;22542;-80
2023/04/15 19:00:52;;;;;;;8.30;6.60;;;;;;;8.69;80.46;98177.74;225792;1279;22552;-80
2023/04/15 19:05:56;;;;;;;7.30;5.90;;;;;;;8.61;80.22;98182.48;225820;1275;22542;-79
2023/04/15 19:10:58;;;;;;;7.20;5.50;;;;;;;8.52;80.36;98193.79;225706;1276;22528;-79
2023/04/15 19:16:00;;;;;;;8.60;5.90;;;;;;;8.48;80.80;98200.75;225643;1278;22541;-82
2023/04/15 19:21:02;;;;;;;9.70;6.60;;;;;;;8.44;80.84;98208.99;225761;1278;22546;-80
2023/04/15 19:26:07;;;;;;;9.30;7.60;;;;;;;8.40;81.15;98214.58;225562;1279;22543;-80
2023/04/15 19:31:09;;;;;;;10.50;7.90;;;;;;;8.38;81.46;98224.27;225788;1275;25342;-79
2023/04/15 19:36:11;;;;;;;14.20;11.40;;;;;;;8.38;81.45;98229.17;225751;1278;22524;-80
2023/04/15 19:41:14;;;;;;;24.10;18.10;;;;;;;8.38;81.62;98243.91;225634;1278;22673;-79
2023/04/15 19:46:16;;;;;;;22.80;16.00;;;;;;;8.38;81.77;98239.74;225829;1278;22955;-80
2023/04/15 19:51:18;;;;;;;17.90;13.30;;;;;;;8.38;82.14;98221.29;225697;1278;22542;-80
2023/04/15 19:56:22;;;;;;;16.60;12.30;;;;;;;8.36;82.08;98215.42;225636;1279;22555;-79
2023/04/15 20:01:26;;;;;;;18.10;14.10;;;;;;;8.33;82.36;98227.86;225535;1278;22535;-80
2023/04/15 20:06:29;;;;;;;19.00;14.70;;;;;;;8.29;82.30;98224.54;225543;1278;22532;-81
2023/04/15 20:11:31;;;;;;;21.00;15.90;;;;;;;8.24;82.62;98228.80;225792;1274;22786;-79
2023/04/15 20:16:53;;;;;;;19.30;16.10;;;;;;;8.17;82.71;98232.61;225664;1269;22527;-81
2023/04/15 20:21:55;;;;;;;19.40;16.10;;;;;;;8.08;82.68;98228.35;225678;1278;22538;-83
2023/04/15 20:26:57;;;;;;;19.90;15.70;;;;;;;8.00;83.13;98232.52;225610;1279;22528;-80
2023/04/15 20:31:59;;;;;;;19.00;13.70;;;;;;;7.92;83.27;98233.38;225664;1278;22550;-81
2023/04/15 20:37:01;;;;;;;16.40;13.30;;;;;;;7.82;83.32;98239.49;225617;1278;24790;-79
2023/04/15 20:42:03;;;;;;;15.40;12.60;;;;;;;7.73;83.24;98236.31;225673;1278;25423;-80
2023/04/15 20:47:06;;;;;;;13.50;11.80;;;;;;;7.66;83.36;98237.69;225579;1278;22555;-79
2023/04/15 20:52:08;;;;;;;14.60;12.20;;;;;;;7.61;83.64;98241.64;225506;1278;22539;-80
2023/04/15 20:57:10;;;;;;;14.30;12.00;;;;;;;7.56;83.43;98245.44;225773;1278;22538;-80
2023/04/15 21:02:12;;;;;;;15.60;12.80;;;;;;;7.52;83.54;98249.62;225832;1273;22524;-80
2023/04/15 21:07:15;;;;;;;17.50;13.00;;;;;;;7.50;83.88;98261.40;225675;1276;22520;-80
2023/04/15 21:12:18;;;;;;;15.40;13.20;;;;;;;7.50;84.05;98268.59;225275;1278;22534;-79
2023/04/15 21:17:22;;;;;;;15.40;13.70;;;;;;;7.52;84.09;98276.36;225480;1278;22550;-79
2023/04/15 21:22:24;;;;;;;16.20;13.50;;;;;;;7.56;84.10;98276.65;225794;1275;22656;-81
2023/04/15 21:27:26;;;;;;;16.40;13.70;;;;;;;7.57;83.98;98279.05;225483;1278;22541;-80
2023/04/15 21:32:29;;;;;;;16.30;13.20;;;;;;;7.59;84.00;98284.08;225671;1279;22537;-81
2023/04/15 21:37:31;;;;;;;15.70;14.00;;;;;;;7.62;84.52;98300.10;225773;1277;22539;-80
2023/04/15 21:42:34;;;;;;;34.00;26.50;;;;;;;7.60;84.43;98308.00;225660;1279;22704;-81
2023/04/15 21:47:42;;;;;;;33.70;26.90;;;;;;;7.57;84.59;98310.48;225805;1276;22590;-82
2023/04/15 21:53:07;;;;;;;34.00;26.90;;;;;;;7.55;84.66;98311.99;225699;1279;24253;-80
2023/04/15 21:58:09;;;;;;;33.50;26.00;;;;;;;7.50;84.49;98315.67;225855;1276;22525;-81
2023/04/15 22:03:11;;;;;;;34.90;26.70;;;;;;;7.40;84.78;98320.93;225605;1274;22544;-81
2023/04/15 22:08:14;;;;;;;36.60;28.20;;;;;;;7.24;84.59;98329.26;225599;1277;22542;-84
2023/04/15 22:13:16;;;;;;;35.90;27.80;;;;;;;7.08;84.76;98333.00;225821;1278;22540;-82
2023/04/15 22:18:19;;;;;;;36.00;27.90;;;;;;;6.97;85.16;98335.85;225624;1276;22528;-82
2023/04/15 22:23:21;;;;;;;32.90;24.30;;;;;;;6.89;85.29;98344.27;225455;1277;222888;-81
2023/04/15 22:28:23;;;;;;;30.20;23.10;;;;;;;6.82;85.38;98351.58;225795;1276;22520;-79
2023/04/15 22:33:25;;;;;;;33.10;25.40;;;;;;;6.76;85.50;98356.02;225629;1278;22527;-81
2023/04/15 22:38:27;;;;;;;35.70;25.80;;;;;;;6.71;85.70;98362.34;225613;1279;22530;-81
2023/04/15 22:43:29;;;;;;;30.70;23.00;;;;;;;6.65;85.94;98364.80;225615;1277;23812;-79
2023/04/15 22:48:33;;;;;;;33.80;25.20;;;;;;;6.56;86.15;98367.48;225796;1272;22550;-82
2023/04/15 22:53:35;;;;;;;31.30;25.00;;;;;;;6.47;86.26;98371.84;225447;1276;24842;-82
2023/04/15 22:58:37;;;;;;;31.60;25.70;;;;;;;6.40;86.08;98381.77;225804;1279;22612;-79
2023/04/15 23:03:39;;;;;;;34.80;25.80;;;;;;;6.34;86.23;98390.86;225539;1266;22581;-80
2023/04/15 23:09:02;;;;;;;32.20;24.20;;;;;;;6.26;86.25;98399.00;225829;1276;22532;-80
2023/04/15 23:14:31;;;;;;;30.30;22.80;;;;;;;6.21;86.23;98398.46;225689;1278;24279;-80
2023/04/15 23:19:33;;;;;;;30.10;22.20;;;;;;;6.15;86.23;98398.20;225841;1276;22520;-81
2023/04/15 23:24:35;;;;;;;26.20;20.50;;;;;;;6.09;86.18;98401.42;225569;1278;23811;-81
2023/04/15 23:29:37;;;;;;;24.90;20.40;;;;;;;6.05;86.71;98406.34;225693;1278;22531;-80